Historyczne dane pomiarowe

Dodano dane terminowe – wersja testowa.

Dane z okresu 1951-2019

Wersja bazy: 1.34 [2019-03-16, lista zmian], aktualizacja planowana na 2019-04-15

Dane meteo z obszaru Polski uzyskane na podstawie danych udostępnionych przez Instytut Meteorologii i Gospodarki Wodnej – Państwowy Instytut Badawczy.

 

Wybierz Datę:    

       

TemperaturaWilgotnośćWiatrCiśnienieOpadyŚniegCzas trwania zjawisk
 Stacja t tx tn tng RH VA  wxwx mslp ppp RRR   cm mm wxwxwxwxwxwxwx
1993-06-13 2.6 3.4 1.8-100.0 7.4 8.0 22.9 24.0 20.8- 829.3 1.0 0.2 0.8- 0.0 0.0 16.1-- 24.0---
1993-06-14 3.9 6.7 1.6- 88.4 7.1 7.4 21.0 24.0 24.0- 834.0 0.2 0.0 0.2- 0.0 10.1 6.6-- 7.8---
1993-06-15 1.6 4.8 0.6- 96.6 6.7 7.6 17.4 24.0 15.0- 835.6 0.5 0.5 0.0- 0.0 1.2 9.8-- 18.9---
1993-06-16 2.6 6.3 -0.4- 92.1 6.9 7.4 12.9 16.0 8.5- 839.2 7.2 0.0 7.2- 0.0 5.1 1.9-- 8.3---
1993-06-17 4.1 6.0 2.3- 98.9 8.1 7.8 19.8 24.0 21.5- 833.2 1.5 1.5 0.0- 0.0 0.1 11.8-- 23.1---
1993-06-18 4.3 5.6 2.2- 99.3 8.3 7.3 15.1 16.7 11.0- 838.5 1.2 1.2 0.0- 0.0 0.6 1.7-- 19.6---
1993-06-19 9.3 12.1 5.0- 92.9 10.9 7.4 11.8 10.8 4.6- 839.1 0.7 0.0 0.7- 0.0 6.9 1.9-- 5.5---
1993-06-20 7.9 12.1 4.0- 95.0 10.3 6.4 12.0 11.5 9.5- 837.2 0.0 0.0 0.0- 0.0 1.6--- 11.9---
1993-06-21 5.6 7.1 4.0- 87.6 8.0 5.4 8.0 7.2 5.7- 838.2 0.6 0.5 0.1- 0.0 4.6 3.1-- 3.9---
1993-06-22 6.8 10.5 4.4- 84.3 8.4 5.1 3.3 0.0 0.0- 837.5 18.4 0.0 18.4- 0.0 5.6 0.8-- 0.7---
1993-06-23 6.1 7.4 5.0- 99.1 9.4 6.9 4.6 0.0 0.0- 832.6 2.9 1.5 1.4- 0.0 0.0 13.2-- 19.1---
1993-06-24 2.5 6.4 0.0- 98.3 7.3 6.9 15.5 19.8 13.5- 833.9 0.7 0.4 0.3- 0.0 4.8 1.7 0.4 0.9 17.0---
1993-06-25 -0.4 1.1 -1.6- 95.0 5.6 7.1 26.1 24.0 24.0- 836.5 0.3 0.0 0.3- 0.0 3.7- 0.1- 14.6---
1993-06-26 -0.9 0.3 -2.5- 98.1 5.6 7.4 21.8 24.0 24.0- 834.8 0.0 0.0 0.0- 0.0 0.1--- 19.0---
1993-06-27 2.3 4.5 -0.2- 98.3 7.1 7.5 17.8 24.0 14.5- 834.0 2.8 0.4 2.4- 0.0 0.8 4.7- 0.5 21.8---
1993-06-28 1.3 3.2 -0.2- 99.4 6.7 8.0 14.5 22.0 10.5- 833.4 2.1 1.1 1.0- 0.0 0.0 2.3- 5.0 23.7---
1993-06-29 4.7 7.0 2.4- 95.1 8.1 6.5 12.3 12.5 6.5- 839.0 0.1 0.0 0.1- 0.0 6.2 0.5-- 12.0---
1993-06-30 5.6 8.7 3.0- 91.8 8.3 5.9 16.3 20.5 13.5- 835.9 0.2 0.2 0.0- 0.0 4.8 0.7-- 12.7---
1993-07-01 5.3 9.2 1.5- 93.6 8.4 5.8 7.4 6.5 4.5- 839.4 0.0 0.0 0.0- 0.0 7.9--- 6.3 5.0--
1993-07-02 9.9 13.0 6.2- 83.8 10.3 2.1 2.4 0.0 0.0- 840.8 0.0 0.0 0.0- 0.0 8.6--- 1.2 5.8--
1993-07-03 13.2 15.9 10.8- 57.9 8.8 4.6 13.9 18.5 8.5- 842.0 0.0 0.0 0.0- 0.0 9.1-------
1993-07-04 10.8 13.2 9.0- 90.5 11.7 6.4 19.3 24.0 24.0- 844.7 0.0 0.0 0.0- 0.0 6.2--- 9.8---
1993-07-05 11.8 16.3 9.4- 90.6 12.6 6.9 12.1 13.5 7.5- 841.6 7.5 0.0 7.5- 0.0 3.2 4.3-- 5.3-- 4.1
1993-07-06 2.4 13.0 -0.1-100.0 7.4 8.0 24.3 22.5 21.8- 836.1 1.1 0.5 0.6- 0.0 0.0 14.3 0.3 2.0 24.0---
1993-07-07 1.5 2.3 0.4- 99.1 6.8 7.9 31.4 24.0 24.0- 834.3 0.8 0.3 0.5- 0.0 0.2 7.6- 0.2 20.0---
1993-07-08 1.6 4.4 -1.0- 94.6 6.5 5.9 15.9 10.2 9.5- 837.2 0.1 0.1 0.0- 0.0 5.4-- 0.2 8.8---
1993-07-09 8.6 12.1 3.0- 72.4 8.1 1.1 9.3 10.5 4.5- 837.6 0.0 0.0 0.0- 0.0 15.1-------
1993-07-10 12.2 15.4 9.7- 75.6 10.7 4.8 11.3 14.3 2.5- 833.1 14.1 0.0 14.1- 0.0 9.2 2.4-- 4.5-- 0.6
1993-07-11 3.6 13.5 1.0-100.0 8.0 8.0 18.5 24.0 14.5- 828.4 7.0 6.1 0.9- 0.0 0.0 18.6 1.2 2.8 24.0---
1993-07-12 1.9 3.1 -0.2- 97.3 6.8 6.6 15.4 20.0 9.5- 833.7 0.9 0.7 0.2- 0.0 2.3 2.2- 0.7 14.7-- 0.6
284.4 ms

 

Źródłem pochodzenia danych jest Instytut Meteorologii i Gospodarki Wodnej – Państwowy Instytut Badawczy. Dane Instytutu Meteorologii i Gospodarki Wodnej – Państwowego Instytutu Badawczego zostały przetworzone.

Dane źródłowe można odnaleźć na stronie https://dane.imgw.pl